SULAYMANIYAH INTERNATIONAL AIRPORT
  • SulyAir
  • SulyAir
1 1
Arrival

ArrivalsMore >>

Departure

DeparturesMore >>

TAF

TAF ORSU 162300Z 1700/1724 06010KT CAVOK
BECMG 1709/1711 9999 FEW045
BECMG 1715/1717 33006KT CAVOK=

METARs

​ METAR ORSU 170300Z 10006KT CAVOK 19/04 Q1016=